sensor_id;sensor_type;location;lat;lon;timestamp;P1;durP1;ratioP1;P2;durP2;ratioP2
76155;SDS011;64906;51.290;7.348;2024-02-15T00:02:23;7.67;;;3.67;;
76155;SDS011;64906;51.290;7.348;2024-02-15T00:04:49;7.87;;;3.67;;
76155;SDS011;64906;51.290;7.348;2024-02-15T00:07:14;8.90;;;4.50;;
76155;SDS011;64906;51.290;7.348;2024-02-15T00:09:39;8.00;;;3.67;;
76155;SDS011;64906;51.290;7.348;2024-02-15T00:12:04;8.77;;;4.20;;
76155;SDS011;64906;51.290;7.348;2024-02-15T00:14:30;8.98;;;3.88;;
76155;SDS011;64906;51.290;7.348;2024-02-15T00:16:56;9.02;;;4.38;;
76155;SDS011;64906;51.290;7.348;2024-02-15T00:19:22;7.95;;;3.70;;
76155;SDS011;64906;51.290;7.348;2024-02-15T00:21:47;7.50;;;3.65;;
76155;SDS011;64906;51.290;7.348;2024-02-15T00:24:13;8.13;;;3.78;;
76155;SDS011;64906;51.290;7.348;2024-02-15T00:26:39;7.93;;;3.92;;
76155;SDS011;64906;51.290;7.348;2024-02-15T00:29:05;9.25;;;4.15;;
76155;SDS011;64906;51.290;7.348;2024-02-15T00:31:30;9.17;;;4.13;;
76155;SDS011;64906;51.290;7.348;2024-02-15T00:33:56;9.00;;;3.97;;
76155;SDS011;64906;51.290;7.348;2024-02-15T00:36:21;6.78;;;3.40;;
76155;SDS011;64906;51.290;7.348;2024-02-15T00:38:48;7.78;;;3.60;;
76155;SDS011;64906;51.290;7.348;2024-02-15T00:41:13;7.67;;;3.73;;
76155;SDS011;64906;51.290;7.348;2024-02-15T00:43:38;8.07;;;3.97;;
76155;SDS011;64906;51.290;7.348;2024-02-15T00:46:04;6.97;;;3.28;;
76155;SDS011;64906;51.290;7.348;2024-02-15T00:48:29;7.13;;;3.60;;
76155;SDS011;64906;51.290;7.348;2024-02-15T00:50:55;9.47;;;4.00;;
76155;SDS011;64906;51.290;7.348;2024-02-15T00:53:21;7.15;;;3.15;;
76155;SDS011;64906;51.290;7.348;2024-02-15T00:55:46;9.77;;;4.23;;
76155;SDS011;64906;51.290;7.348;2024-02-15T00:58:11;7.60;;;3.77;;
76155;SDS011;64906;51.290;7.348;2024-02-15T01:00:37;8.15;;;4.00;;
76155;SDS011;64906;51.290;7.348;2024-02-15T01:03:03;7.55;;;3.78;;
76155;SDS011;64906;51.290;7.348;2024-02-15T01:05:29;7.43;;;3.55;;
76155;SDS011;64906;51.290;7.348;2024-02-15T01:07:55;8.27;;;3.97;;
76155;SDS011;64906;51.290;7.348;2024-02-15T01:10:20;8.18;;;3.85;;
76155;SDS011;64906;51.290;7.348;2024-02-15T01:12:46;7.17;;;3.63;;
76155;SDS011;64906;51.290;7.348;2024-02-15T01:15:11;9.63;;;4.35;;
76155;SDS011;64906;51.290;7.348;2024-02-15T01:17:36;8.13;;;3.70;;
76155;SDS011;64906;51.290;7.348;2024-02-15T01:20:02;7.37;;;3.80;;
76155;SDS011;64906;51.290;7.348;2024-02-15T01:22:27;8.80;;;4.18;;
76155;SDS011;64906;51.290;7.348;2024-02-15T01:24:53;8.17;;;3.80;;
76155;SDS011;64906;51.290;7.348;2024-02-15T01:27:18;8.05;;;3.55;;
76155;SDS011;64906;51.290;7.348;2024-02-15T01:29:44;8.05;;;3.80;;
76155;SDS011;64906;51.290;7.348;2024-02-15T01:32:10;8.20;;;4.18;;
76155;SDS011;64906;51.290;7.348;2024-02-15T01:34:35;7.60;;;3.80;;
76155;SDS011;64906;51.290;7.348;2024-02-15T01:37:00;8.00;;;3.73;;
76155;SDS011;64906;51.290;7.348;2024-02-15T01:39:26;8.80;;;4.07;;
76155;SDS011;64906;51.290;7.348;2024-02-15T01:41:51;8.27;;;3.93;;
76155;SDS011;64906;51.290;7.348;2024-02-15T01:44:21;8.25;;;3.83;;
76155;SDS011;64906;51.290;7.348;2024-02-15T01:46:48;7.97;;;3.75;;
76155;SDS011;64906;51.290;7.348;2024-02-15T01:49:14;6.82;;;3.05;;
76155;SDS011;64906;51.290;7.348;2024-02-15T01:51:40;7.13;;;3.72;;
76155;SDS011;64906;51.290;7.348;2024-02-15T01:54:08;7.47;;;3.65;;
76155;SDS011;64906;51.290;7.348;2024-02-15T01:56:34;7.30;;;3.55;;
76155;SDS011;64906;51.290;7.348;2024-02-15T01:59:01;7.97;;;3.75;;
76155;SDS011;64906;51.290;7.348;2024-02-15T02:01:28;7.90;;;3.65;;
76155;SDS011;64906;51.290;7.348;2024-02-15T02:03:57;7.68;;;3.50;;
76155;SDS011;64906;51.290;7.348;2024-02-15T02:06:23;7.63;;;3.50;;
76155;SDS011;64906;51.290;7.348;2024-02-15T02:08:49;8.25;;;3.78;;
76155;SDS011;64906;51.290;7.348;2024-02-15T02:11:14;8.65;;;3.92;;
76155;SDS011;64906;51.290;7.348;2024-02-15T02:13:39;7.60;;;3.53;;
76155;SDS011;64906;51.290;7.348;2024-02-15T02:16:23;8.40;;;3.87;;
76155;SDS011;64906;51.290;7.348;2024-02-15T02:18:49;7.07;;;3.15;;
76155;SDS011;64906;51.290;7.348;2024-02-15T02:21:15;6.72;;;3.20;;
76155;SDS011;64906;51.290;7.348;2024-02-15T02:23:41;8.50;;;3.53;;
76155;SDS011;64906;51.290;7.348;2024-02-15T02:26:07;7.40;;;3.58;;
76155;SDS011;64906;51.290;7.348;2024-02-15T02:28:35;8.05;;;3.63;;
76155;SDS011;64906;51.290;7.348;2024-02-15T02:31:01;7.60;;;3.72;;
76155;SDS011;64906;51.290;7.348;2024-02-15T02:33:26;8.20;;;3.80;;
76155;SDS011;64906;51.290;7.348;2024-02-15T02:35:54;8.73;;;3.90;;
76155;SDS011;64906;51.290;7.348;2024-02-15T02:38:22;7.60;;;3.53;;
76155;SDS011;64906;51.290;7.348;2024-02-15T02:40:51;7.95;;;3.67;;
76155;SDS011;64906;51.290;7.348;2024-02-15T02:43:17;6.45;;;3.05;;
76155;SDS011;64906;51.290;7.348;2024-02-15T02:45:42;7.03;;;3.30;;
76155;SDS011;64906;51.290;7.348;2024-02-15T02:48:08;7.10;;;3.30;;
76155;SDS011;64906;51.290;7.348;2024-02-15T02:50:33;6.63;;;3.20;;
76155;SDS011;64906;51.290;7.348;2024-02-15T02:52:58;7.20;;;3.57;;
76155;SDS011;64906;51.290;7.348;2024-02-15T02:55:24;6.95;;;3.45;;
76155;SDS011;64906;51.290;7.348;2024-02-15T02:57:52;8.25;;;3.67;;
76155;SDS011;64906;51.290;7.348;2024-02-15T03:00:20;6.57;;;3.13;;
76155;SDS011;64906;51.290;7.348;2024-02-15T03:02:46;8.23;;;3.33;;
76155;SDS011;64906;51.290;7.348;2024-02-15T03:05:12;7.72;;;3.53;;
76155;SDS011;64906;51.290;7.348;2024-02-15T03:07:40;7.55;;;3.55;;
76155;SDS011;64906;51.290;7.348;2024-02-15T03:10:06;7.13;;;3.43;;
76155;SDS011;64906;51.290;7.348;2024-02-15T03:12:35;6.80;;;3.35;;
76155;SDS011;64906;51.290;7.348;2024-02-15T03:15:01;7.38;;;3.30;;
76155;SDS011;64906;51.290;7.348;2024-02-15T03:17:32;5.80;;;2.95;;
76155;SDS011;64906;51.290;7.348;2024-02-15T03:19:58;8.18;;;3.67;;
76155;SDS011;64906;51.290;7.348;2024-02-15T03:22:24;7.63;;;3.50;;
76155;SDS011;64906;51.290;7.348;2024-02-15T03:24:51;7.32;;;3.70;;
76155;SDS011;64906;51.290;7.348;2024-02-15T03:27:17;6.05;;;2.85;;
76155;SDS011;64906;51.290;7.348;2024-02-15T03:29:42;7.10;;;3.47;;
76155;SDS011;64906;51.290;7.348;2024-02-15T03:32:07;7.73;;;3.50;;
76155;SDS011;64906;51.290;7.348;2024-02-15T03:34:34;6.68;;;3.08;;
76155;SDS011;64906;51.290;7.348;2024-02-15T03:37:00;7.00;;;3.40;;
76155;SDS011;64906;51.290;7.348;2024-02-15T03:39:28;6.32;;;3.10;;
76155;SDS011;64906;51.290;7.348;2024-02-15T03:41:54;9.20;;;4.03;;
76155;SDS011;64906;51.290;7.348;2024-02-15T03:44:20;6.22;;;3.08;;
76155;SDS011;64906;51.290;7.348;2024-02-15T03:46:46;7.17;;;3.20;;
76155;SDS011;64906;51.290;7.348;2024-02-15T03:49:15;6.90;;;3.33;;
76155;SDS011;64906;51.290;7.348;2024-02-15T03:51:41;7.00;;;3.50;;
76155;SDS011;64906;51.290;7.348;2024-02-15T03:54:10;7.07;;;3.22;;
76155;SDS011;64906;51.290;7.348;2024-02-15T03:56:46;6.68;;;3.10;;
76155;SDS011;64906;51.290;7.348;2024-02-15T03:59:17;6.82;;;3.17;;
76155;SDS011;64906;51.290;7.348;2024-02-15T04:01:50;7.68;;;3.33;;
76155;SDS011;64906;51.290;7.348;2024-02-15T04:04:15;7.18;;;3.20;;
76155;SDS011;64906;51.290;7.348;2024-02-15T04:06:40;5.93;;;2.60;;
76155;SDS011;64906;51.290;7.348;2024-02-15T04:09:06;6.05;;;3.00;;
76155;SDS011;64906;51.290;7.348;2024-02-15T04:11:32;6.90;;;2.75;;
76155;SDS011;64906;51.290;7.348;2024-02-15T04:13:58;6.45;;;3.15;;
76155;SDS011;64906;51.290;7.348;2024-02-15T04:16:23;6.00;;;3.00;;
76155;SDS011;64906;51.290;7.348;2024-02-15T04:18:50;6.05;;;3.03;;
76155;SDS011;64906;51.290;7.348;2024-02-15T04:21:16;7.10;;;3.20;;
76155;SDS011;64906;51.290;7.348;2024-02-15T04:23:44;8.88;;;3.33;;
76155;SDS011;64906;51.290;7.348;2024-02-15T04:26:10;7.18;;;3.30;;
76155;SDS011;64906;51.290;7.348;2024-02-15T04:28:38;7.03;;;3.10;;
76155;SDS011;64906;51.290;7.348;2024-02-15T04:31:04;6.78;;;3.05;;
76155;SDS011;64906;51.290;7.348;2024-02-15T04:33:33;5.60;;;2.55;;
76155;SDS011;64906;51.290;7.348;2024-02-15T04:35:59;6.40;;;2.70;;
76155;SDS011;64906;51.290;7.348;2024-02-15T04:38:27;5.90;;;2.78;;
76155;SDS011;64906;51.290;7.348;2024-02-15T04:40:52;6.83;;;3.30;;
76155;SDS011;64906;51.290;7.348;2024-02-15T04:43:18;6.10;;;2.63;;
76155;SDS011;64906;51.290;7.348;2024-02-15T04:45:44;6.80;;;2.78;;
76155;SDS011;64906;51.290;7.348;2024-02-15T04:48:10;6.22;;;3.20;;
76155;SDS011;64906;51.290;7.348;2024-02-15T04:50:38;6.03;;;2.60;;
76155;SDS011;64906;51.290;7.348;2024-02-15T04:53:08;6.55;;;2.83;;
76155;SDS011;64906;51.290;7.348;2024-02-15T04:55:33;6.45;;;2.80;;
76155;SDS011;64906;51.290;7.348;2024-02-15T04:58:00;6.40;;;2.95;;
76155;SDS011;64906;51.290;7.348;2024-02-15T05:00:26;6.22;;;2.97;;
76155;SDS011;64906;51.290;7.348;2024-02-15T05:02:51;5.57;;;2.50;;
76155;SDS011;64906;51.290;7.348;2024-02-15T05:05:17;6.07;;;2.65;;
76155;SDS011;64906;51.290;7.348;2024-02-15T05:07:42;5.80;;;3.03;;
76155;SDS011;64906;51.290;7.348;2024-02-15T05:10:08;5.68;;;2.70;;
76155;SDS011;64906;51.290;7.348;2024-02-15T05:12:34;6.13;;;2.72;;
76155;SDS011;64906;51.290;7.348;2024-02-15T05:15:00;5.90;;;2.90;;
76155;SDS011;64906;51.290;7.348;2024-02-15T05:17:26;7.68;;;2.95;;
76155;SDS011;64906;51.290;7.348;2024-02-15T05:19:53;6.05;;;2.60;;
76155;SDS011;64906;51.290;7.348;2024-02-15T05:22:18;5.87;;;2.90;;
76155;SDS011;64906;51.290;7.348;2024-02-15T05:24:44;5.63;;;2.70;;
76155;SDS011;64906;51.290;7.348;2024-02-15T05:27:10;5.97;;;2.60;;
76155;SDS011;64906;51.290;7.348;2024-02-15T05:29:35;5.82;;;2.47;;
76155;SDS011;64906;51.290;7.348;2024-02-15T05:32:02;6.18;;;2.70;;
76155;SDS011;64906;51.290;7.348;2024-02-15T05:34:27;5.30;;;2.58;;
76155;SDS011;64906;51.290;7.348;2024-02-15T05:36:54;6.47;;;2.85;;
76155;SDS011;64906;51.290;7.348;2024-02-15T05:39:20;5.15;;;2.53;;
76155;SDS011;64906;51.290;7.348;2024-02-15T05:41:47;7.15;;;3.30;;
76155;SDS011;64906;51.290;7.348;2024-02-15T05:44:12;5.20;;;2.70;;
76155;SDS011;64906;51.290;7.348;2024-02-15T05:46:39;5.50;;;2.60;;
76155;SDS011;64906;51.290;7.348;2024-02-15T05:49:05;5.70;;;2.60;;
76155;SDS011;64906;51.290;7.348;2024-02-15T05:51:30;5.07;;;2.40;;
76155;SDS011;64906;51.290;7.348;2024-02-15T05:53:59;6.15;;;2.75;;
76155;SDS011;64906;51.290;7.348;2024-02-15T05:56:24;6.53;;;2.75;;
76155;SDS011;64906;51.290;7.348;2024-02-15T05:58:50;7.18;;;3.05;;
76155;SDS011;64906;51.290;7.348;2024-02-15T06:01:16;6.20;;;2.67;;
76155;SDS011;64906;51.290;7.348;2024-02-15T06:03:41;5.97;;;2.53;;
76155;SDS011;64906;51.290;7.348;2024-02-15T06:06:09;5.55;;;2.58;;
76155;SDS011;64906;51.290;7.348;2024-02-15T06:08:35;5.78;;;2.58;;
76155;SDS011;64906;51.290;7.348;2024-02-15T06:11:01;5.70;;;2.67;;
76155;SDS011;64906;51.290;7.348;2024-02-15T06:13:27;6.40;;;2.75;;
76155;SDS011;64906;51.290;7.348;2024-02-15T06:15:53;6.18;;;2.45;;
76155;SDS011;64906;51.290;7.348;2024-02-15T06:18:23;5.55;;;2.53;;
76155;SDS011;64906;51.290;7.348;2024-02-15T06:20:53;5.57;;;2.47;;
76155;SDS011;64906;51.290;7.348;2024-02-15T06:23:19;5.22;;;2.60;;
76155;SDS011;64906;51.290;7.348;2024-02-15T06:25:46;5.22;;;2.38;;
76155;SDS011;64906;51.290;7.348;2024-02-15T06:28:14;5.55;;;2.50;;
76155;SDS011;64906;51.290;7.348;2024-02-15T06:30:58;6.03;;;2.55;;
76155;SDS011;64906;51.290;7.348;2024-02-15T06:33:42;6.55;;;2.58;;
76155;SDS011;64906;51.290;7.348;2024-02-15T06:36:26;5.50;;;2.47;;
76155;SDS011;64906;51.290;7.348;2024-02-15T06:39:10;6.70;;;2.70;;
76155;SDS011;64906;51.290;7.348;2024-02-15T06:41:54;5.80;;;2.50;;
76155;SDS011;64906;51.290;7.348;2024-02-15T06:44:19;5.40;;;2.50;;
76155;SDS011;64906;51.290;7.348;2024-02-15T06:46:45;6.57;;;2.80;;
76155;SDS011;64906;51.290;7.348;2024-02-15T06:49:11;5.93;;;2.50;;
76155;SDS011;64906;51.290;7.348;2024-02-15T06:51:36;4.68;;;2.33;;
76155;SDS011;64906;51.290;7.348;2024-02-15T06:54:02;5.70;;;2.60;;
76155;SDS011;64906;51.290;7.348;2024-02-15T06:56:28;5.47;;;2.38;;
76155;SDS011;64906;51.290;7.348;2024-02-15T06:58:53;4.93;;;2.23;;
76155;SDS011;64906;51.290;7.348;2024-02-15T07:01:19;6.55;;;2.45;;
76155;SDS011;64906;51.290;7.348;2024-02-15T07:03:44;5.57;;;2.60;;
76155;SDS011;64906;51.290;7.348;2024-02-15T07:06:12;5.65;;;2.53;;
76155;SDS011;64906;51.290;7.348;2024-02-15T07:08:38;5.07;;;2.28;;
76155;SDS011;64906;51.290;7.348;2024-02-15T07:11:06;6.00;;;2.60;;
76155;SDS011;64906;51.290;7.348;2024-02-15T07:13:34;5.13;;;2.47;;
76155;SDS011;64906;51.290;7.348;2024-02-15T07:16:00;5.63;;;2.45;;
76155;SDS011;64906;51.290;7.348;2024-02-15T07:18:26;6.25;;;2.58;;
76155;SDS011;64906;51.290;7.348;2024-02-15T07:20:52;4.88;;;2.33;;
76155;SDS011;64906;51.290;7.348;2024-02-15T07:23:18;5.10;;;2.47;;
76155;SDS011;64906;51.290;7.348;2024-02-15T07:25:43;5.40;;;2.25;;
76155;SDS011;64906;51.290;7.348;2024-02-15T07:28:08;5.33;;;2.00;;
76155;SDS011;64906;51.290;7.348;2024-02-15T07:30:34;5.30;;;2.33;;
76155;SDS011;64906;51.290;7.348;2024-02-15T07:33:01;4.72;;;2.10;;
76155;SDS011;64906;51.290;7.348;2024-02-15T07:35:27;5.43;;;2.53;;
76155;SDS011;64906;51.290;7.348;2024-02-15T07:37:54;5.22;;;2.47;;
76155;SDS011;64906;51.290;7.348;2024-02-15T07:42:54;5.70;;;2.20;;
76155;SDS011;64906;51.290;7.348;2024-02-15T07:45:21;5.22;;;1.92;;
76155;SDS011;64906;51.290;7.348;2024-02-15T07:47:46;4.87;;;2.30;;
76155;SDS011;64906;51.290;7.348;2024-02-15T07:50:15;5.20;;;2.20;;
76155;SDS011;64906;51.290;7.348;2024-02-15T07:52:45;4.70;;;2.25;;
76155;SDS011;64906;51.290;7.348;2024-02-15T07:55:10;4.75;;;2.20;;
76155;SDS011;64906;51.290;7.348;2024-02-15T07:57:35;5.90;;;2.27;;
76155;SDS011;64906;51.290;7.348;2024-02-15T08:00:00;5.03;;;2.33;;
76155;SDS011;64906;51.290;7.348;2024-02-15T08:02:26;5.33;;;2.23;;
76155;SDS011;64906;51.290;7.348;2024-02-15T08:04:53;4.65;;;2.15;;
76155;SDS011;64906;51.290;7.348;2024-02-15T08:07:19;5.20;;;2.17;;
76155;SDS011;64906;51.290;7.348;2024-02-15T08:09:45;4.85;;;2.10;;
76155;SDS011;64906;51.290;7.348;2024-02-15T08:12:11;5.32;;;2.10;;
76155;SDS011;64906;51.290;7.348;2024-02-15T08:14:37;4.53;;;2.15;;
76155;SDS011;64906;51.290;7.348;2024-02-15T08:17:02;4.37;;;2.17;;
76155;SDS011;64906;51.290;7.348;2024-02-15T08:19:28;4.78;;;2.10;;
76155;SDS011;64906;51.290;7.348;2024-02-15T08:21:54;4.63;;;2.13;;
76155;SDS011;64906;51.290;7.348;2024-02-15T08:24:19;5.37;;;2.23;;
76155;SDS011;64906;51.290;7.348;2024-02-15T08:26:44;5.70;;;2.40;;
76155;SDS011;64906;51.290;7.348;2024-02-15T08:29:10;5.93;;;2.60;;
76155;SDS011;64906;51.290;7.348;2024-02-15T08:31:36;5.45;;;2.10;;
76155;SDS011;64906;51.290;7.348;2024-02-15T08:34:02;5.25;;;2.20;;
76155;SDS011;64906;51.290;7.348;2024-02-15T08:36:30;5.57;;;2.28;;
76155;SDS011;64906;51.290;7.348;2024-02-15T08:38:55;5.68;;;2.25;;
76155;SDS011;64906;51.290;7.348;2024-02-15T08:41:21;4.80;;;2.03;;
76155;SDS011;64906;51.290;7.348;2024-02-15T08:43:48;4.70;;;2.20;;
76155;SDS011;64906;51.290;7.348;2024-02-15T08:46:14;4.90;;;2.20;;
76155;SDS011;64906;51.290;7.348;2024-02-15T08:48:39;4.80;;;2.15;;
76155;SDS011;64906;51.290;7.348;2024-02-15T08:51:05;5.88;;;2.22;;
76155;SDS011;64906;51.290;7.348;2024-02-15T08:53:31;5.45;;;2.30;;
76155;SDS011;64906;51.290;7.348;2024-02-15T08:55:57;4.57;;;2.05;;
76155;SDS011;64906;51.290;7.348;2024-02-15T08:58:22;4.68;;;2.00;;
76155;SDS011;64906;51.290;7.348;2024-02-15T09:00:48;5.40;;;2.28;;
76155;SDS011;64906;51.290;7.348;2024-02-15T09:03:13;4.37;;;1.83;;
76155;SDS011;64906;51.290;7.348;2024-02-15T09:05:39;4.90;;;1.92;;
76155;SDS011;64906;51.290;7.348;2024-02-15T09:08:08;4.90;;;2.20;;
76155;SDS011;64906;51.290;7.348;2024-02-15T09:10:33;4.88;;;2.25;;
76155;SDS011;64906;51.290;7.348;2024-02-15T09:13:01;5.93;;;2.20;;
76155;SDS011;64906;51.290;7.348;2024-02-15T09:15:26;4.73;;;2.10;;
76155;SDS011;64906;51.290;7.348;2024-02-15T09:17:51;5.20;;;2.20;;
76155;SDS011;64906;51.290;7.348;2024-02-15T09:20:19;4.60;;;2.05;;
76155;SDS011;64906;51.290;7.348;2024-02-15T09:22:47;3.80;;;1.73;;
76155;SDS011;64906;51.290;7.348;2024-02-15T09:25:13;4.68;;;2.10;;
76155;SDS011;64906;51.290;7.348;2024-02-15T09:27:39;4.40;;;1.80;;
76155;SDS011;64906;51.290;7.348;2024-02-15T09:30:04;4.18;;;1.73;;
76155;SDS011;64906;51.290;7.348;2024-02-15T09:32:34;4.78;;;2.13;;
76155;SDS011;64906;51.290;7.348;2024-02-15T09:35:00;4.63;;;2.20;;
76155;SDS011;64906;51.290;7.348;2024-02-15T09:37:25;5.20;;;2.10;;
76155;SDS011;64906;51.290;7.348;2024-02-15T09:39:53;4.47;;;1.90;;
76155;SDS011;64906;51.290;7.348;2024-02-15T09:42:18;4.97;;;2.08;;
76155;SDS011;64906;51.290;7.348;2024-02-15T09:44:43;4.70;;;2.10;;
76155;SDS011;64906;51.290;7.348;2024-02-15T09:47:09;4.47;;;1.85;;
76155;SDS011;64906;51.290;7.348;2024-02-15T09:49:38;4.82;;;1.98;;
76155;SDS011;64906;51.290;7.348;2024-02-15T09:52:07;4.22;;;1.90;;
76155;SDS011;64906;51.290;7.348;2024-02-15T09:54:40;4.50;;;1.90;;
76155;SDS011;64906;51.290;7.348;2024-02-15T09:57:08;4.97;;;2.08;;
76155;SDS011;64906;51.290;7.348;2024-02-15T09:59:36;4.97;;;1.83;;
76155;SDS011;64906;51.290;7.348;2024-02-15T10:02:01;4.57;;;1.90;;
76155;SDS011;64906;51.290;7.348;2024-02-15T10:04:27;4.60;;;1.88;;
76155;SDS011;64906;51.290;7.348;2024-02-15T10:06:52;4.47;;;1.77;;
76155;SDS011;64906;51.290;7.348;2024-02-15T10:09:24;5.00;;;1.90;;
76155;SDS011;64906;51.290;7.348;2024-02-15T10:11:55;4.53;;;1.98;;
76155;SDS011;64906;51.290;7.348;2024-02-15T10:14:24;4.22;;;2.05;;
76155;SDS011;64906;51.290;7.348;2024-02-15T10:16:50;4.28;;;1.90;;
76155;SDS011;64906;51.290;7.348;2024-02-15T10:19:17;4.93;;;1.88;;
76155;SDS011;64906;51.290;7.348;2024-02-15T10:21:45;5.18;;;2.38;;
76155;SDS011;64906;51.290;7.348;2024-02-15T10:24:11;5.22;;;2.03;;
76155;SDS011;64906;51.290;7.348;2024-02-15T10:26:36;4.53;;;1.85;;
76155;SDS011;64906;51.290;7.348;2024-02-15T10:29:20;4.35;;;1.80;;
76155;SDS011;64906;51.290;7.348;2024-02-15T10:31:54;4.47;;;1.90;;
76155;SDS011;64906;51.290;7.348;2024-02-15T10:34:21;3.95;;;1.73;;
76155;SDS011;64906;51.290;7.348;2024-02-15T10:36:48;5.05;;;2.08;;
76155;SDS011;64906;51.290;7.348;2024-02-15T10:39:18;4.95;;;2.28;;
76155;SDS011;64906;51.290;7.348;2024-02-15T10:41:51;4.68;;;1.90;;
76155;SDS011;64906;51.290;7.348;2024-02-15T10:44:18;3.80;;;1.65;;
76155;SDS011;64906;51.290;7.348;2024-02-15T10:46:46;4.07;;;1.80;;
76155;SDS011;64906;51.290;7.348;2024-02-15T10:49:22;4.65;;;2.00;;
76155;SDS011;64906;51.290;7.348;2024-02-15T10:51:56;5.47;;;2.20;;
76155;SDS011;64906;51.290;7.348;2024-02-15T10:54:26;5.07;;;1.90;;
76155;SDS011;64906;51.290;7.348;2024-02-15T10:56:54;4.45;;;1.70;;
76155;SDS011;64906;51.290;7.348;2024-02-15T10:59:29;5.07;;;2.22;;
76155;SDS011;64906;51.290;7.348;2024-02-15T11:01:59;4.15;;;1.92;;
76155;SDS011;64906;51.290;7.348;2024-02-15T11:04:25;4.07;;;1.70;;
76155;SDS011;64906;51.290;7.348;2024-02-15T11:06:58;4.53;;;1.77;;
76155;SDS011;64906;51.290;7.348;2024-02-15T11:09:23;4.55;;;2.10;;
76155;SDS011;64906;51.290;7.348;2024-02-15T11:11:52;3.70;;;1.58;;
76155;SDS011;64906;51.290;7.348;2024-02-15T11:14:30;4.93;;;2.20;;
76155;SDS011;64906;51.290;7.348;2024-02-15T11:17:00;5.05;;;1.98;;
76155;SDS011;64906;51.290;7.348;2024-02-15T11:19:40;4.50;;;1.85;;
76155;SDS011;64906;51.290;7.348;2024-02-15T11:22:11;4.38;;;1.90;;
76155;SDS011;64906;51.290;7.348;2024-02-15T11:24:50;4.68;;;1.80;;
76155;SDS011;64906;51.290;7.348;2024-02-15T11:27:27;3.85;;;1.73;;
76155;SDS011;64906;51.290;7.348;2024-02-15T11:29:59;4.20;;;1.88;;
76155;SDS011;64906;51.290;7.348;2024-02-15T11:35:20;4.28;;;1.67;;
76155;SDS011;64906;51.290;7.348;2024-02-15T11:40:13;5.20;;;2.10;;
76155;SDS011;64906;51.290;7.348;2024-02-15T11:42:48;3.70;;;1.73;;
76155;SDS011;64906;51.290;7.348;2024-02-15T11:45:15;3.83;;;1.73;;
76155;SDS011;64906;51.290;7.348;2024-02-15T11:47:44;5.15;;;1.70;;
76155;SDS011;64906;51.290;7.348;2024-02-15T11:50:14;4.13;;;1.65;;
76155;SDS011;64906;51.290;7.348;2024-02-15T11:52:45;4.70;;;1.70;;
76155;SDS011;64906;51.290;7.348;2024-02-15T11:55:14;4.32;;;1.63;;
76155;SDS011;64906;51.290;7.348;2024-02-15T11:57:56;4.07;;;1.85;;
76155;SDS011;64906;51.290;7.348;2024-02-15T12:03:14;4.05;;;1.52;;
76155;SDS011;64906;51.290;7.348;2024-02-15T12:05:59;4.00;;;1.70;;
76155;SDS011;64906;51.290;7.348;2024-02-15T12:08:47;4.40;;;1.73;;
76155;SDS011;64906;51.290;7.348;2024-02-15T12:11:32;3.60;;;1.50;;
76155;SDS011;64906;51.290;7.348;2024-02-15T12:14:16;3.92;;;1.63;;
76155;SDS011;64906;51.290;7.348;2024-02-15T12:17:01;4.07;;;1.80;;
76155;SDS011;64906;51.290;7.348;2024-02-15T12:19:47;4.05;;;1.80;;
76155;SDS011;64906;51.290;7.348;2024-02-15T12:22:14;4.65;;;1.80;;
76155;SDS011;64906;51.290;7.348;2024-02-15T12:24:40;4.32;;;1.90;;
76155;SDS011;64906;51.290;7.348;2024-02-15T12:27:06;3.67;;;1.67;;
76155;SDS011;64906;51.290;7.348;2024-02-15T12:29:32;4.80;;;2.03;;
76155;SDS011;64906;51.290;7.348;2024-02-15T12:31:58;4.22;;;1.65;;
76155;SDS011;64906;51.290;7.348;2024-02-15T12:34:23;4.00;;;1.77;;
76155;SDS011;64906;51.290;7.348;2024-02-15T12:36:49;3.67;;;1.53;;
76155;SDS011;64906;51.290;7.348;2024-02-15T12:39:14;4.55;;;1.88;;
76155;SDS011;64906;51.290;7.348;2024-02-15T12:41:50;4.72;;;1.67;;
76155;SDS011;64906;51.290;7.348;2024-02-15T12:44:16;4.10;;;1.77;;
76155;SDS011;64906;51.290;7.348;2024-02-15T12:46:42;4.05;;;1.63;;
76155;SDS011;64906;51.290;7.348;2024-02-15T12:51:40;4.05;;;1.83;;
76155;SDS011;64906;51.290;7.348;2024-02-15T12:54:19;3.88;;;1.60;;
76155;SDS011;64906;51.290;7.348;2024-02-15T12:56:46;4.40;;;1.80;;
76155;SDS011;64906;51.290;7.348;2024-02-15T12:59:13;5.13;;;1.83;;
76155;SDS011;64906;51.290;7.348;2024-02-15T13:01:39;4.00;;;1.63;;
76155;SDS011;64906;51.290;7.348;2024-02-15T13:04:04;4.03;;;1.77;;
76155;SDS011;64906;51.290;7.348;2024-02-15T13:06:31;4.88;;;1.85;;
76155;SDS011;64906;51.290;7.348;2024-02-15T13:08:59;4.47;;;1.83;;
76155;SDS011;64906;51.290;7.348;2024-02-15T13:11:26;3.78;;;1.73;;
76155;SDS011;64906;51.290;7.348;2024-02-15T13:13:52;4.70;;;2.10;;
76155;SDS011;64906;51.290;7.348;2024-02-15T13:16:17;4.07;;;1.87;;
76155;SDS011;64906;51.290;7.348;2024-02-15T13:18:44;3.92;;;1.80;;
76155;SDS011;64906;51.290;7.348;2024-02-15T13:21:12;3.90;;;1.58;;
76155;SDS011;64906;51.290;7.348;2024-02-15T13:23:37;4.15;;;1.50;;
76155;SDS011;64906;51.290;7.348;2024-02-15T13:26:02;4.68;;;1.80;;
76155;SDS011;64906;51.290;7.348;2024-02-15T13:28:29;3.50;;;1.50;;
76155;SDS011;64906;51.290;7.348;2024-02-15T13:30:55;3.85;;;1.63;;
76155;SDS011;64906;51.290;7.348;2024-02-15T13:33:21;3.70;;;1.58;;
76155;SDS011;64906;51.290;7.348;2024-02-15T13:35:46;4.10;;;1.70;;
76155;SDS011;64906;51.290;7.348;2024-02-15T13:38:14;3.97;;;1.60;;
76155;SDS011;64906;51.290;7.348;2024-02-15T13:40:47;3.45;;;1.45;;
76155;SDS011;64906;51.290;7.348;2024-02-15T13:43:17;3.95;;;1.70;;
76155;SDS011;64906;51.290;7.348;2024-02-15T13:45:42;3.75;;;1.58;;
76155;SDS011;64906;51.290;7.348;2024-02-15T13:48:09;3.78;;;1.63;;
76155;SDS011;64906;51.290;7.348;2024-02-15T13:50:38;4.45;;;1.55;;
76155;SDS011;64906;51.290;7.348;2024-02-15T13:53:03;4.15;;;1.73;;
76155;SDS011;64906;51.290;7.348;2024-02-15T13:55:29;3.90;;;1.63;;
76155;SDS011;64906;51.290;7.348;2024-02-15T13:57:55;3.55;;;1.67;;
76155;SDS011;64906;51.290;7.348;2024-02-15T14:00:22;3.67;;;1.42;;
76155;SDS011;64906;51.290;7.348;2024-02-15T14:02:48;3.45;;;1.55;;
76155;SDS011;64906;51.290;7.348;2024-02-15T14:05:14;3.75;;;1.33;;
76155;SDS011;64906;51.290;7.348;2024-02-15T14:07:42;3.78;;;1.50;;
76155;SDS011;64906;51.290;7.348;2024-02-15T14:10:08;3.35;;;1.38;;
76155;SDS011;64906;51.290;7.348;2024-02-15T14:12:34;3.00;;;1.38;;
76155;SDS011;64906;51.290;7.348;2024-02-15T14:15:00;3.87;;;1.50;;
76155;SDS011;64906;51.290;7.348;2024-02-15T14:17:25;3.95;;;1.70;;
76155;SDS011;64906;51.290;7.348;2024-02-15T14:19:53;3.90;;;1.55;;
76155;SDS011;64906;51.290;7.348;2024-02-15T14:22:18;3.72;;;1.63;;
76155;SDS011;64906;51.290;7.348;2024-02-15T14:24:43;4.83;;;1.80;;
76155;SDS011;64906;51.290;7.348;2024-02-15T14:27:09;3.85;;;1.70;;
76155;SDS011;64906;51.290;7.348;2024-02-15T14:29:36;3.67;;;1.55;;
76155;SDS011;64906;51.290;7.348;2024-02-15T14:32:05;4.20;;;1.70;;
76155;SDS011;64906;51.290;7.348;2024-02-15T14:34:50;4.40;;;1.88;;
76155;SDS011;64906;51.290;7.348;2024-02-15T14:37:15;3.95;;;1.52;;
76155;SDS011;64906;51.290;7.348;2024-02-15T14:39:42;4.22;;;1.75;;
76155;SDS011;64906;51.290;7.348;2024-02-15T14:42:07;4.15;;;1.83;;
76155;SDS011;64906;51.290;7.348;2024-02-15T14:44:33;3.58;;;1.65;;
76155;SDS011;64906;51.290;7.348;2024-02-15T14:46:59;4.03;;;1.55;;
76155;SDS011;64906;51.290;7.348;2024-02-15T14:49:24;4.10;;;1.58;;
76155;SDS011;64906;51.290;7.348;2024-02-15T14:51:50;4.37;;;1.80;;
76155;SDS011;64906;51.290;7.348;2024-02-15T14:54:16;4.00;;;1.50;;
76155;SDS011;64906;51.290;7.348;2024-02-15T14:56:43;4.10;;;1.63;;
76155;SDS011;64906;51.290;7.348;2024-02-15T14:59:09;3.65;;;1.50;;
76155;SDS011;64906;51.290;7.348;2024-02-15T15:01:36;3.90;;;1.52;;
76155;SDS011;64906;51.290;7.348;2024-02-15T15:04:02;3.85;;;1.52;;